Time;durP1;ratioP1;P1;durP2;ratioP2;P2;SDS_P1;SDS_P2;PMS_P1;PMS_P2;Temp;Humidity;BMP_temperature;BMP_pressure;BME280_temperature;BME280_humidity;BME280_pressure;Samples;Min_cycle;Max_cycle;Signal;HPM_P1;HPM_P2
2023/03/23 00:01:20;;;;;;;4.32;2.50;;;16.20;74.60;;;;;;5035224;28;20514;-44
2023/03/23 00:03:47;;;;;;;3.40;2.17;;;16.20;74.60;;;;;;5035374;28;20049;-43
2023/03/23 00:06:16;;;;;;;3.13;1.85;;;16.30;74.60;;;;;;5035014;28;20053;-43
2023/03/23 00:08:45;;;;;;;5.22;2.13;;;16.20;74.60;;;;;;5035013;28;20049;-46
2023/03/23 00:11:15;;;;;;;3.05;2.08;;;16.20;74.60;;;;;;5034989;28;20111;-49
2023/03/23 00:13:42;;;;;;;2.47;2.05;;;16.20;74.50;;;;;;5035032;28;20042;-44
2023/03/23 00:16:17;;;;;;;2.38;1.90;;;16.20;74.50;;;;;;5035126;28;20389;-45
2023/03/23 00:18:52;;;;;;;2.72;2.42;;;16.20;74.50;;;;;;5035522;28;20116;-44
2023/03/23 00:21:18;;;;;;;5.05;2.42;;;16.20;74.50;;;;;;5034720;28;20147;-47
2023/03/23 00:23:44;;;;;;;3.65;1.77;;;16.20;74.50;;;;;;5035161;28;20048;-43
2023/03/23 00:26:10;;;;;;;3.90;1.98;;;16.20;74.50;;;;;;5034793;28;20175;-43
2023/03/23 00:28:36;;;;;;;3.42;2.13;;;16.20;74.50;;;;;;5024821;28;20065;-44
2023/03/23 00:31:03;;;;;;;3.38;1.92;;;16.20;74.40;;;;;;5034699;28;20092;-49
2023/03/23 00:33:33;;;;;;;3.60;2.22;;;16.10;74.40;;;;;;5035178;28;20455;-47
2023/03/23 00:35:59;;;;;;;3.90;1.88;;;16.20;74.50;;;;;;5034457;28;20049;-43
2023/03/23 00:38:24;;;;;;;2.45;1.73;;;16.20;74.50;;;;;;5034839;28;20549;-47
2023/03/23 00:40:50;;;;;;;2.38;1.90;;;16.20;74.40;;;;;;5034207;28;20037;-42
2023/03/23 00:43:17;;;;;;;2.90;2.13;;;16.10;74.40;;;;;;5035037;28;20046;-46
2023/03/23 00:45:44;;;;;;;2.83;1.70;;;16.20;74.50;;;;;;5034492;28;20056;-41
2023/03/23 00:48:12;;;;;;;2.85;1.83;;;16.10;74.40;;;;;;5034186;28;20801;-41
2023/03/23 00:50:39;;;;;;;2.53;1.70;;;16.20;74.50;;;;;;5034880;28;20045;-42
2023/03/23 00:53:05;;;;;;;3.25;1.80;;;16.20;74.40;;;;;;5034440;28;20041;-41
2023/03/23 00:55:30;;;;;;;2.78;1.80;;;16.20;74.40;;;;;;5033905;28;20496;-49
2023/03/23 00:57:56;;;;;;;1.92;1.60;;;16.10;74.40;;;;;;5034343;28;20041;-46
2023/03/23 01:00:22;;;;;;;2.70;1.77;;;16.10;74.30;;;;;;5034101;28;20107;-41
2023/03/23 01:02:51;;;;;;;1.85;1.35;;;16.10;74.30;;;;;;5033814;28;20052;-47
2023/03/23 01:05:17;;;;;;;2.05;1.50;;;16.10;74.40;;;;;;5034001;28;20057;-45
2023/03/23 01:07:44;;;;;;;3.50;1.73;;;16.10;74.40;;;;;;5033973;28;20045;-45
2023/03/23 01:10:12;;;;;;;1.80;1.45;;;16.10;74.50;;;;;;5034025;28;20132;-43
2023/03/23 01:12:39;;;;;;;3.20;1.90;;;16.10;74.50;;;;;;5034154;28;20120;-44
2023/03/23 01:15:05;;;;;;;2.67;1.60;;;16.10;74.50;;;;;;5034412;28;20061;-42
2023/03/23 01:17:31;;;;;;;2.55;1.70;;;16.00;74.40;;;;;;5033650;28;20045;-45
2023/03/23 01:19:57;;;;;;;3.50;2.00;;;16.10;74.50;;;;;;5033611;28;20049;-45
2023/03/23 01:22:23;;;;;;;2.45;1.52;;;16.00;74.50;;;;;;5033774;28;20033;-47
2023/03/23 01:24:48;;;;;;;2.78;1.80;;;16.10;74.50;;;;;;5033686;28;20088;-47
2023/03/23 01:27:14;;;;;;;3.08;1.88;;;16.10;74.50;;;;;;5033595;28;20046;-42
2023/03/23 01:29:40;;;;;;;2.80;1.85;;;16.10;74.50;;;;;;5033448;28;20057;-45
2023/03/23 01:32:06;;;;;;;1.98;1.50;;;16.00;74.40;;;;;;5024552;28;20045;-45
2023/03/23 01:34:31;;;;;;;5.13;2.20;;;16.10;74.50;;;;;;5033768;28;20171;-43
2023/03/23 01:36:57;;;;;;;3.17;1.70;;;16.00;74.50;;;;;;5033202;28;20056;-45
2023/03/23 01:39:23;;;;;;;3.05;1.98;;;16.10;74.50;;;;;;5033924;28;20045;-48
2023/03/23 01:41:48;;;;;;;2.28;1.58;;;16.00;74.40;;;;;;5033503;28;20052;-45
2023/03/23 01:44:17;;;;;;;2.78;1.77;;;16.10;74.50;;;;;;5033075;28;20583;-46
2023/03/23 01:46:43;;;;;;;3.15;1.77;;;16.00;74.40;;;;;;5033536;28;20049;-47
2023/03/23 01:49:11;;;;;;;2.22;1.38;;;16.00;74.50;;;;;;5033814;28;20045;-45
2023/03/23 01:51:40;;;;;;;2.58;1.67;;;16.00;74.40;;;;;;5032116;28;20108;-45
2023/03/23 01:54:07;;;;;;;2.15;1.60;;;16.00;74.50;;;;;;5033351;28;20128;-45
2023/03/23 01:56:40;;;;;;;3.08;1.70;;;16.00;74.50;;;;;;5032284;28;20152;-49
2023/03/23 01:59:07;;;;;;;3.88;1.90;;;16.00;74.40;;;;;;5031695;28;20049;-49
2023/03/23 02:01:36;;;;;;;2.15;1.50;;;16.00;74.40;;;;;;5032965;28;20049;-47
2023/03/23 02:04:02;;;;;;;3.33;1.85;;;16.00;74.40;;;;;;5032134;28;20041;-46
2023/03/23 02:06:28;;;;;;;1.92;1.67;;;16.00;74.30;;;;;;5031804;28;20045;-48
2023/03/23 02:08:53;;;;;;;2.78;1.80;;;16.00;74.40;;;;;;5033156;28;20088;-46
2023/03/23 02:11:21;;;;;;;2.67;1.48;;;16.00;74.30;;;;;;5032336;28;20540;-45
2023/03/23 02:13:47;;;;;;;3.03;1.77;;;16.00;74.30;;;;;;5032681;28;20089;-47
2023/03/23 02:16:21;;;;;;;2.17;1.70;;;16.00;74.30;;;;;;5032060;28;20116;-43
2023/03/23 02:18:57;;;;;;;2.33;1.65;;;16.00;74.30;;;;;;5033109;28;20099;-45
2023/03/23 02:21:47;;;;;;;2.58;1.77;;;16.00;74.30;;;;;;5031207;28;20179;-47
2023/03/23 02:24:23;;;;;;;2.53;1.70;;;16.00;74.30;;;;;;5032729;28;20049;-43
2023/03/23 02:27:08;;;;;;;4.47;1.50;;;16.00;74.30;;;;;;5031146;28;20053;-46
2023/03/23 02:29:52;;;;;;;2.72;1.55;;;16.00;74.30;;;;;;5031302;28;20057;-43
2023/03/23 02:32:41;;;;;;;1.73;1.50;;;16.00;74.30;;;;;;5031912;28;20045;-42
2023/03/23 02:35:10;;;;;;;2.50;1.48;;;16.00;74.30;;;;;;5025882;28;20091;-42
2023/03/23 02:37:38;;;;;;;2.38;1.70;;;16.00;74.30;;;;;;5030074;28;20046;-41
2023/03/23 02:40:11;;;;;;;2.05;1.33;;;16.00;74.30;;;;;;5031625;28;20125;-42
2023/03/23 02:42:38;;;;;;;2.70;1.75;;;16.00;74.30;;;;;;5031679;28;20053;-41
2023/03/23 02:45:04;;;;;;;3.67;1.60;;;15.90;74.20;;;;;;5031740;28;20484;-41
2023/03/23 02:47:30;;;;;;;1.70;1.60;;;16.00;74.30;;;;;;5031222;28;20046;-49
2023/03/23 02:49:56;;;;;;;2.33;1.45;;;16.00;74.90;;;;;;5031332;28;20048;-44
2023/03/23 02:52:24;;;;;;;1.88;1.67;;;15.90;74.20;;;;;;5031368;28;20706;-48
2023/03/23 02:54:50;;;;;;;2.28;1.75;;;16.00;74.30;;;;;;5030669;28;20064;-48
2023/03/23 02:57:17;;;;;;;2.13;1.40;;;16.00;74.30;;;;;;5031240;28;20046;-47
2023/03/23 02:59:42;;;;;;;2.72;1.50;;;15.90;74.30;;;;;;5032224;28;20045;-46
2023/03/23 03:02:26;;;;;;;1.60;1.50;;;15.90;74.30;;;;;;5032051;28;20382;-43
2023/03/23 03:04:58;;;;;;;2.88;1.50;;;15.90;74.30;;;;;;5032098;28;20187;-47
2023/03/23 03:07:36;;;;;;;1.95;1.50;;;15.90;74.30;;;;;;5031632;28;20049;-46
2023/03/23 03:10:16;;;;;;;2.13;1.40;;;15.90;74.30;;;;;;5030686;28;20135;-45
2023/03/23 03:13:20;;;;;;;3.47;1.55;;;15.90;74.30;;;;;;5031583;28;20077;-47
2023/03/23 03:16:04;;;;;;;2.95;1.73;;;15.90;74.30;;;;;;5031637;28;20451;-43
2023/03/23 03:18:39;;;;;;;1.77;1.30;;;15.90;74.30;;;;;;5031196;28;20503;-44
2023/03/23 03:21:06;;;;;;;3.10;1.50;;;15.90;74.30;;;;;;5031651;28;20453;-44
2023/03/23 03:23:32;;;;;;;1.80;1.50;;;15.90;74.40;;;;;;5030817;28;20042;-47
2023/03/23 03:25:58;;;;;;;1.42;1.30;;;15.90;74.30;;;;;;5030932;28;20068;-46
2023/03/23 03:28:24;;;;;;;1.95;1.40;;;15.90;74.40;;;;;;5030771;28;20556;-44
2023/03/23 03:30:56;;;;;;;2.63;1.50;;;15.90;74.40;;;;;;5030196;28;20530;-44
2023/03/23 03:33:25;;;;;;;1.92;1.42;;;15.90;74.40;;;;;;5031087;28;20481;-49
2023/03/23 03:35:51;;;;;;;2.28;1.23;;;15.90;74.40;;;;;;5030982;28;20045;-47
2023/03/23 03:38:17;;;;;;;2.83;1.55;;;15.90;74.40;;;;;;5030418;28;20571;-49
2023/03/23 03:40:43;;;;;;;2.05;1.15;;;15.90;74.40;;;;;;5023170;28;20133;-44
2023/03/23 03:43:08;;;;;;;3.15;1.58;;;15.90;74.30;;;;;;5032367;28;20115;-42
2023/03/23 03:45:34;;;;;;;2.50;1.42;;;15.90;74.40;;;;;;5035138;28;20544;-50
2023/03/23 03:48:01;;;;;;;2.03;1.35;;;15.90;74.40;;;;;;5035727;28;20049;-47
2023/03/23 03:50:27;;;;;;;2.33;1.42;;;15.90;74.40;;;;;;5035763;28;20488;-46
2023/03/23 03:52:53;;;;;;;2.25;1.50;;;15.90;74.40;;;;;;5035117;28;20500;-44
2023/03/23 03:55:19;;;;;;;2.85;1.33;;;15.90;74.40;;;;;;5035451;28;20092;-42
2023/03/23 03:57:44;;;;;;;1.98;1.50;;;15.90;74.40;;;;;;5034777;28;20081;-47
2023/03/23 04:00:14;;;;;;;3.30;1.40;;;15.80;74.40;;;;;;5035333;28;20049;-49
2023/03/23 04:02:41;;;;;;;2.70;1.50;;;15.80;74.40;;;;;;5034500;28;20053;-42
2023/03/23 04:05:08;;;;;;;4.15;1.40;;;15.90;74.50;;;;;;5035248;28;20057;-46
2023/03/23 04:07:37;;;;;;;2.75;1.20;;;15.80;75.00;;;;;;5035509;28;20060;-45
2023/03/23 04:10:05;;;;;;;2.35;1.33;;;15.80;74.50;;;;;;5035363;28;20060;-47
2023/03/23 04:12:31;;;;;;;2.25;1.40;;;15.80;74.50;;;;;;5035112;28;20056;-44
2023/03/23 04:14:57;;;;;;;3.42;1.70;;;15.80;74.40;;;;;;5035223;28;20045;-45
2023/03/23 04:17:25;;;;;;;3.15;1.23;;;15.80;74.40;;;;;;5035487;28;20056;-45
2023/03/23 04:19:52;;;;;;;1.95;1.65;;;15.80;74.40;;;;;;5034792;28;20045;-43
2023/03/23 04:22:17;;;;;;;2.08;1.20;;;15.80;74.50;;;;;;5035098;28;20049;-42
2023/03/23 04:24:43;;;;;;;2.70;1.73;;;15.80;74.50;;;;;;5035152;28;20049;-44
2023/03/23 04:27:08;;;;;;;2.67;1.33;;;15.80;74.50;;;;;;5034100;28;20056;-44
2023/03/23 04:29:34;;;;;;;2.28;1.50;;;15.80;74.40;;;;;;5034592;28;20099;-42
2023/03/23 04:32:01;;;;;;;2.85;1.60;;;15.80;74.50;;;;;;5034903;28;20049;-43
2023/03/23 04:34:27;;;;;;;2.85;1.60;;;15.80;74.40;;;;;;5034740;28;20041;-41
2023/03/23 04:36:52;;;;;;;2.60;1.33;;;15.80;74.50;;;;;;5034944;28;20095;-44
2023/03/23 04:39:18;;;;;;;3.50;1.50;;;15.80;74.50;;;;;;5035207;28;20477;-46
2023/03/23 04:41:45;;;;;;;1.95;1.25;;;15.80;74.50;;;;;;5034381;28;20048;-48
2023/03/23 04:44:17;;;;;;;3.50;1.58;;;15.80;74.40;;;;;;5025528;28;20506;-47
2023/03/23 04:46:45;;;;;;;2.80;1.60;;;15.80;74.40;;;;;;5034846;28;20096;-48
2023/03/23 04:49:10;;;;;;;3.58;1.45;;;15.80;74.40;;;;;;5034197;28;20045;-48
2023/03/23 04:51:36;;;;;;;2.80;1.40;;;15.80;74.40;;;;;;5034689;28;20103;-45
2023/03/23 04:54:02;;;;;;;1.98;1.30;;;15.80;74.40;;;;;;5033744;28;20053;-46
2023/03/23 04:56:27;;;;;;;3.40;1.60;;;15.70;74.30;;;;;;5033765;28;20049;-45
2023/03/23 04:58:53;;;;;;;6.60;1.50;;;15.80;74.40;;;;;;5034340;28;20045;-42
2023/03/23 05:01:19;;;;;;;2.20;1.30;;;15.80;74.40;;;;;;5033649;28;20049;-47
2023/03/23 05:03:45;;;;;;;3.65;1.42;;;15.70;74.40;;;;;;5008859;28;20084;-46
2023/03/23 05:06:10;;;;;;;2.58;1.35;;;15.80;74.40;;;;;;5002869;28;20404;-47
2023/03/23 05:08:40;;;;;;;3.00;1.60;;;15.80;74.40;;;;;;5014152;28;20081;-48
2023/03/23 05:11:05;;;;;;;4.40;1.50;;;15.70;74.30;;;;;;5014570;28;20054;-48
2023/03/23 05:13:31;;;;;;;4.25;1.42;;;15.70;74.30;;;;;;5014461;28;20417;-43
2023/03/23 05:15:57;;;;;;;2.83;1.95;;;15.70;74.30;;;;;;5013725;28;20046;-46
2023/03/23 05:18:23;;;;;;;4.70;1.80;;;15.70;74.20;;;;;;5014241;28;20519;-42
2023/03/23 05:20:48;;;;;;;3.50;1.90;;;15.70;74.20;;;;;;5014469;28;20042;-48
2023/03/23 05:23:14;;;;;;;3.70;1.45;;;15.80;74.20;;;;;;5013586;28;20045;-47
2023/03/23 05:25:40;;;;;;;3.28;1.88;;;15.70;74.10;;;;;;5013784;28;20073;-47
2023/03/23 05:28:07;;;;;;;3.80;1.83;;;15.70;74.10;;;;;;5013989;28;20058;-42
2023/03/23 05:30:33;;;;;;;3.10;1.45;;;15.70;74.10;;;;;;5013619;28;20053;-48
2023/03/23 05:32:59;;;;;;;3.67;1.55;;;15.70;74.10;;;;;;5013902;28;20533;-48
2023/03/23 05:35:25;;;;;;;6.53;2.25;;;15.70;74.10;;;;;;5014201;28;20084;-47
2023/03/23 05:37:53;;;;;;;4.05;1.67;;;15.70;74.10;;;;;;5013648;28;20073;-47
2023/03/23 05:40:19;;;;;;;5.55;1.52;;;15.70;74.10;;;;;;5013956;28;20050;-48
2023/03/23 05:42:45;;;;;;;5.30;1.67;;;15.70;74.10;;;;;;5013917;28;20074;-47
2023/03/23 05:45:11;;;;;;;6.25;1.77;;;15.70;74.20;;;;;;5013368;28;20060;-44
2023/03/23 05:47:38;;;;;;;3.47;1.35;;;15.70;74.20;;;;;;5012342;28;20153;-48
2023/03/23 05:50:06;;;;;;;6.13;1.88;;;15.70;74.20;;;;;;5026236;28;20128;-46
2023/03/23 05:52:32;;;;;;;6.13;1.90;;;15.70;74.30;;;;;;5033177;28;20045;-46
2023/03/23 05:54:58;;;;;;;4.70;2.00;;;15.70;74.30;;;;;;5033006;28;20056;-47
2023/03/23 05:57:24;;;;;;;3.72;1.92;;;15.70;74.30;;;;;;5027196;28;20038;-47
2023/03/23 05:59:50;;;;;;;6.22;2.08;;;15.70;74.20;;;;;;5013274;28;20388;-47
2023/03/23 06:02:15;;;;;;;5.15;2.20;;;15.60;74.20;;;;;;5013563;28;20473;-45
2023/03/23 06:04:41;;;;;;;7.30;1.95;;;15.70;74.20;;;;;;5013196;28;20060;-43
2023/03/23 06:07:07;;;;;;;5.32;2.20;;;15.70;74.20;;;;;;5013489;28;20164;-43
2023/03/23 06:09:34;;;;;;;5.43;1.92;;;15.70;74.10;;;;;;5013405;28;20445;-46
2023/03/23 06:11:59;;;;;;;4.32;2.05;;;15.70;74.70;;;;;;5012748;28;20204;-43
2023/03/23 06:14:26;;;;;;;6.40;2.00;;;15.60;74.10;;;;;;5013440;28;20129;-43
2023/03/23 06:16:51;;;;;;;4.65;1.77;;;15.70;74.10;;;;;;5013239;28;20093;-43
2023/03/23 06:19:17;;;;;;;6.57;2.00;;;15.70;74.10;;;;;;5013143;28;20042;-42
2023/03/23 06:21:43;;;;;;;7.43;2.28;;;15.70;74.00;;;;;;5013028;28;20471;-43
2023/03/23 06:24:10;;;;;;;7.43;2.10;;;15.70;74.00;;;;;;5013237;28;20185;-39
2023/03/23 06:26:37;;;;;;;6.30;1.90;;;15.70;74.30;;;;;;5012576;28;20077;-38
2023/03/23 06:29:10;;;;;;;6.95;2.25;;;15.80;74.40;;;;;;5012558;28;20050;-39
2023/03/23 06:31:38;;;;;;;4.80;2.00;;;15.70;74.10;;;;;;5012745;28;20544;-39
2023/03/23 06:34:04;;;;;;;5.70;2.33;;;15.70;74.10;;;;;;5013848;28;20128;-39
2023/03/23 06:36:30;;;;;;;7.30;2.65;;;15.70;74.00;;;;;;5016679;28;20591;-38
2023/03/23 06:38:56;;;;;;;7.43;2.67;;;15.80;74.50;;;;;;5016322;28;20106;-40
2023/03/23 06:41:22;;;;;;;10.05;3.22;;;15.80;74.00;;;;;;5012507;28;20508;-41
2023/03/23 06:43:47;;;;;;;8.27;2.63;;;15.80;74.30;;;;;;5013086;28;20038;-41
2023/03/23 06:46:13;;;;;;;8.25;2.97;;;15.90;74.80;;;;;;5011155;28;20471;-39
2023/03/23 06:48:38;;;;;;;8.20;3.00;;;15.90;75.80;;;;;;5011731;28;20524;-39
2023/03/23 06:51:05;;;;;;;7.63;2.90;;;16.00;75.40;;;;;;5012437;28;20485;-39
2023/03/23 06:53:31;;;;;;;7.72;2.92;;;16.00;76.00;;;;;;5008995;28;20103;-38
2023/03/23 06:55:56;;;;;;;9.52;3.05;;;16.00;76.20;;;;;;5012503;28;20046;-38
2023/03/23 06:58:23;;;;;;;10.85;2.85;;;16.00;75.30;;;;;;5012470;28;20536;-39
2023/03/23 07:00:58;;;;;;;7.68;2.85;;;16.00;75.80;;;;;;5011616;28;20107;-45
2023/03/23 07:03:25;;;;;;;9.82;2.92;;;16.00;76.20;;;;;;5012558;28;20046;-41
2023/03/23 07:05:51;;;;;;;8.98;3.22;;;16.00;75.60;;;;;;5012437;28;20065;-39
2023/03/23 07:08:17;;;;;;;8.10;2.88;;;16.00;75.60;;;;;;5012038;28;20042;-40
2023/03/23 07:10:43;;;;;;;10.27;2.97;;;15.90;75.20;;;;;;5012425;28;20115;-39
2023/03/23 07:13:09;;;;;;;10.52;3.10;;;15.90;75.20;;;;;;5012815;28;20151;-38
2023/03/23 07:15:34;;;;;;;7.82;2.75;;;15.90;75.50;;;;;;5011874;28;20086;-39
2023/03/23 07:18:00;;;;;;;14.63;2.95;;;15.90;75.40;;;;;;5012854;28;20129;-38
2023/03/23 07:20:26;;;;;;;10.43;3.33;;;15.90;75.60;;;;;;5016103;28;20405;-40
2023/03/23 07:22:53;;;;;;;9.25;3.03;;;15.90;75.50;;;;;;5015814;28;20615;-38
2023/03/23 07:25:19;;;;;;;8.63;2.78;;;15.90;75.40;;;;;;5016194;28;20085;-41
2023/03/23 07:27:46;;;;;;;10.88;3.25;;;15.90;75.40;;;;;;5015756;28;20144;-39
2023/03/23 07:30:13;;;;;;;8.85;2.65;;;15.90;75.40;;;;;;5015554;28;20064;-40
2023/03/23 07:32:39;;;;;;;8.23;2.88;;;15.90;75.20;;;;;;5016374;28;20088;-41
2023/03/23 07:35:05;;;;;;;7.72;3.22;;;15.90;75.30;;;;;;5016560;28;20046;-40
2023/03/23 07:37:32;;;;;;;9.27;2.95;;;15.90;75.30;;;;;;5015680;28;20042;-39
2023/03/23 07:39:57;;;;;;;7.35;2.72;;;15.90;75.20;;;;;;5016098;28;20145;-40
2023/03/23 07:42:23;;;;;;;6.80;2.58;;;15.90;75.10;;;;;;5016326;28;20046;-38
2023/03/23 07:44:49;;;;;;;6.35;2.55;;;15.90;75.10;;;;;;5015524;28;20045;-39
2023/03/23 07:47:15;;;;;;;7.20;2.63;;;15.90;75.00;;;;;;5016247;28;20076;-40
2023/03/23 07:49:40;;;;;;;9.40;3.17;;;16.00;75.20;;;;;;5015472;28;20042;-38
2023/03/23 07:52:06;;;;;;;9.20;2.90;;;16.00;75.00;;;;;;5015987;28;20053;-40
2023/03/23 07:54:32;;;;;;;9.98;3.25;;;16.00;74.90;;;;;;5015607;28;20053;-40
2023/03/23 07:56:57;;;;;;;6.32;2.65;;;16.00;74.60;;;;;;5014939;28;20046;-39
2023/03/23 07:59:23;;;;;;;6.05;2.38;;;16.00;75.10;;;;;;5015874;28;20046;-40
2023/03/23 08:01:49;;;;;;;11.82;2.97;;;16.10;74.50;;;;;;5015563;28;20168;-39
2023/03/23 08:04:15;;;;;;;7.18;2.42;;;16.10;74.50;;;;;;5015164;28;20397;-39
2023/03/23 08:06:41;;;;;;;8.50;2.75;;;16.10;74.60;;;;;;5015406;28;20503;-38
2023/03/23 08:09:08;;;;;;;10.70;2.85;;;16.00;74.50;;;;;;5015844;28;20042;-39
2023/03/23 08:11:38;;;;;;;7.75;2.75;;;16.10;74.40;;;;;;5015099;28;20041;-38
2023/03/23 08:14:05;;;;;;;6.65;2.80;;;16.10;74.30;;;;;;5015565;28;20152;-38
2023/03/23 08:16:31;;;;;;;6.97;2.70;;;16.10;74.30;;;;;;5015448;28;20116;-38
2023/03/23 08:18:57;;;;;;;7.25;2.53;;;16.10;74.30;;;;;;5014801;28;20050;-38
2023/03/23 08:21:23;;;;;;;6.13;2.60;;;16.20;74.30;;;;;;5015283;28;20062;-40
2023/03/23 08:23:48;;;;;;;6.38;2.63;;;16.20;74.20;;;;;;5015014;28;20038;-39
2023/03/23 08:26:17;;;;;;;5.25;2.40;;;16.20;74.30;;;;;;5014835;28;20053;-40
2023/03/23 08:28:43;;;;;;;7.20;2.63;;;16.20;74.30;;;;;;5015084;28;20054;-39
2023/03/23 08:31:10;;;;;;;6.70;2.30;;;16.20;74.30;;;;;;5014117;28;20144;-39
2023/03/23 08:33:36;;;;;;;5.70;2.53;;;16.30;74.30;;;;;;5014629;28;20053;-39
2023/03/23 08:36:02;;;;;;;6.25;2.30;;;16.30;74.30;;;;;;5014734;28;20050;-40
2023/03/23 08:38:28;;;;;;;5.20;2.47;;;16.30;74.10;;;;;;5015046;28;20092;-39
2023/03/23 08:40:58;;;;;;;5.95;2.22;;;16.40;74.10;;;;;;5014753;28;20053;-39
2023/03/23 08:43:24;;;;;;;8.93;2.70;;;16.40;74.10;;;;;;5015057;28;20061;-39
2023/03/23 08:45:51;;;;;;;5.78;2.63;;;16.40;73.90;;;;;;5015159;28;20413;-39
2023/03/23 08:48:17;;;;;;;5.40;2.40;;;16.50;74.00;;;;;;5014488;28;20050;-39
2023/03/23 08:50:43;;;;;;;6.18;2.42;;;16.50;73.80;;;;;;5014832;28;20062;-41
2023/03/23 08:53:09;;;;;;;4.50;2.15;;;16.50;73.90;;;;;;5014467;28;20145;-38
2023/03/23 08:55:34;;;;;;;5.95;2.35;;;16.50;73.80;;;;;;5014528;28;20053;-41
2023/03/23 08:58:00;;;;;;;5.45;2.22;;;16.60;73.80;;;;;;5014922;28;20056;-40
2023/03/23 09:00:27;;;;;;;4.95;2.50;;;16.60;73.70;;;;;;5014447;28;20053;-38
2023/03/23 09:02:53;;;;;;;7.05;2.47;;;16.70;73.70;;;;;;5014499;28;20481;-41
2023/03/23 09:05:26;;;;;;;5.35;2.50;;;16.70;73.60;;;;;;5014911;28;20053;-39
2023/03/23 09:07:53;;;;;;;6.00;2.22;;;16.70;73.50;;;;;;5014136;28;20101;-39
2023/03/23 09:10:19;;;;;;;5.38;1.92;;;16.80;73.50;;;;;;5014476;28;20432;-39
2023/03/23 09:12:46;;;;;;;5.82;2.55;;;16.80;73.50;;;;;;5014748;28;20113;-38
2023/03/23 09:15:14;;;;;;;5.38;1.90;;;16.90;73.50;;;;;;5013726;28;20109;-40
2023/03/23 09:17:42;;;;;;;5.78;2.20;;;16.90;73.30;;;;;;5014541;28;20045;-39
2023/03/23 09:20:11;;;;;;;4.75;2.20;;;16.90;73.40;;;;;;5014194;28;20478;-39
2023/03/23 09:22:49;;;;;;;5.70;2.63;;;16.90;73.30;;;;;;5013969;28;20103;-38
2023/03/23 09:25:20;;;;;;;3.90;2.00;;;16.90;73.40;;;;;;5014303;28;20096;-38
2023/03/23 09:27:49;;;;;;;4.80;2.47;;;17.00;73.30;;;;;;5013939;28;20104;-40
2023/03/23 09:30:14;;;;;;;6.07;2.38;;;17.00;73.30;;;;;;5013705;28;20050;-40
2023/03/23 09:32:42;;;;;;;5.82;2.20;;;17.00;73.10;;;;;;5013953;28;20495;-38
2023/03/23 09:35:09;;;;;;;5.00;2.15;;;17.10;73.20;;;;;;5013873;28;20048;-38
2023/03/23 09:37:35;;;;;;;6.53;2.40;;;17.10;73.10;;;;;;5013891;28;20134;-38
2023/03/23 09:40:03;;;;;;;6.53;2.30;;;17.20;73.00;;;;;;5014168;28;20128;-41
2023/03/23 09:42:36;;;;;;;5.18;1.98;;;17.20;73.10;;;;;;5013117;28;20389;-38
2023/03/23 09:45:05;;;;;;;4.68;2.03;;;17.20;73.20;;;;;;4996988;28;20057;-38
2023/03/23 09:47:53;;;;;;;4.60;2.00;;;17.10;73.10;;;;;;5012539;28;20049;-41
2023/03/23 09:50:21;;;;;;;5.70;2.65;;;17.10;73.20;;;;;;5013340;28;20049;-41
2023/03/23 09:52:49;;;;;;;4.32;2.03;;;17.20;73.80;;;;;;5012770;28;20077;-39
2023/03/23 09:55:16;;;;;;;4.65;2.00;;;17.20;73.10;;;;;;5012355;28;20049;-38
2023/03/23 09:58:05;;;;;;;5.53;2.10;;;17.20;73.00;;;;;;5013114;28;20050;-37
2023/03/23 10:00:42;;;;;;;5.55;2.30;;;17.30;73.00;;;;;;5013881;28;20054;-39
2023/03/23 10:03:11;;;;;;;5.55;2.15;;;17.30;73.00;;;;;;4980703;28;20104;-37
2023/03/23 10:05:41;;;;;;;5.32;2.13;;;17.30;73.00;;;;;;5013252;28;20476;-38
2023/03/23 10:08:13;;;;;;;6.50;2.00;;;17.30;72.90;;;;;;5013728;28;20104;-39
2023/03/23 10:10:58;;;;;;;5.55;2.28;;;17.30;72.90;;;;;;5011740;28;20103;-38
2023/03/23 10:13:43;;;;;;;4.40;1.70;;;17.40;72.80;;;;;;4997725;28;20057;-41
2023/03/23 10:16:11;;;;;;;5.63;2.10;;;17.40;72.80;;;;;;5012608;28;20049;-38
2023/03/23 10:18:43;;;;;;;6.68;2.38;;;17.40;72.80;;;;;;5011643;28;20489;-38
2023/03/23 10:21:16;;;;;;;3.08;1.77;;;17.50;72.70;;;;;;5013327;28;20450;-38
2023/03/23 10:24:08;;;;;;;4.97;2.15;;;17.50;72.60;;;;;;5013118;28;20412;-40
2023/03/23 10:26:56;;;;;;;3.70;1.70;;;17.50;72.60;;;;;;5011151;28;20060;-38
2023/03/23 10:29:29;;;;;;;5.20;2.10;;;17.50;72.60;;;;;;5012668;28;20136;-40
2023/03/23 10:32:04;;;;;;;5.28;2.65;;;17.60;72.60;;;;;;5012507;28;20045;-41
2023/03/23 10:34:57;;;;;;;5.43;2.50;;;17.60;72.70;;;;;;5012999;28;20050;-41
2023/03/23 10:37:26;;;;;;;6.68;2.60;;;17.60;72.60;;;;;;5012137;28;20072;-42
2023/03/23 10:39:58;;;;;;;4.50;1.95;;;17.70;72.30;;;;;;5011366;28;20076;-38
2023/03/23 10:42:31;;;;;;;5.45;2.40;;;17.80;72.10;;;;;;5013077;28;20504;-42
2023/03/23 10:44:59;;;;;;;;;;;17.90;71.90;;;;;;5012094;28;20046;-39
2023/03/23 10:47:25;;;;;;;6.20;2.00;;;18.00;71.80;;;;;;5012398;28;19921;-42
2023/03/23 10:49:58;;;;;;;4.47;2.05;;;18.00;71.90;;;;;;5013091;28;20049;-43
2023/03/23 10:52:31;;;;;;;4.97;2.05;;;18.00;71.90;;;;;;5012092;28;20053;-38
2023/03/23 10:55:04;;;;;;;6.07;1.80;;;17.90;72.00;;;;;;5011215;28;20053;-39
2023/03/23 10:57:33;;;;;;;;;;;17.90;72.10;;;;;;5012946;28;20516;-42
2023/03/23 11:00:26;;;;;;;5.80;2.45;;;18.00;72.00;;;;;;5011738;28;20388;-41
2023/03/23 11:03:02;;;;;;;4.88;2.10;;;18.10;71.90;;;;;;5012749;28;20042;-39
2023/03/23 11:05:50;;;;;;;5.57;2.42;;;18.20;71.70;;;;;;5012339;28;20049;-38
2023/03/23 11:08:31;;;;;;;5.65;2.17;;;18.30;71.50;;;;;;5012098;28;20485;-39
2023/03/23 11:11:09;;;;;;;7.40;2.60;;;18.30;71.40;;;;;;5011784;28;20049;-41
2023/03/23 11:13:39;;;;;;;5.32;2.38;;;18.40;71.30;;;;;;5012786;28;20167;-39
2023/03/23 11:16:05;;;;;;;5.93;2.40;;;18.40;71.20;;;;;;5011611;28;20107;-40
2023/03/23 11:18:36;;;;;;;4.47;2.22;;;18.50;71.10;;;;;;5011542;28;20050;-44
2023/03/23 11:21:03;;;;;;;7.25;2.08;;;18.60;71.00;;;;;;5011939;28;20057;-41
2023/03/23 11:23:33;;;;;;;7.45;2.70;;;18.60;70.90;;;;;;5011609;28;20038;-41
2023/03/23 11:26:10;;;;;;;4.80;2.30;;;18.60;70.90;;;;;;5011970;28;20061;-43
2023/03/23 11:28:43;;;;;;;4.55;2.47;;;18.60;70.90;;;;;;5011785;28;20061;-40
2023/03/23 11:31:09;;;;;;;5.70;2.28;;;18.70;71.00;;;;;;5012234;28;20121;-40
2023/03/23 11:33:48;;;;;;;4.72;2.28;;;18.60;71.00;;;;;;5012845;28;20121;-39
2023/03/23 11:36:14;;;;;;;3.95;2.10;;;18.60;71.10;;;;;;5011963;28;20444;-41
2023/03/23 11:38:40;;;;;;;4.75;2.00;;;18.70;71.10;;;;;;5011596;28;20103;-40
2023/03/23 11:41:11;;;;;;;5.95;1.90;;;18.80;71.00;;;;;;5012593;28;20053;-44
2023/03/23 11:43:40;;;;;;;7.47;2.20;;;18.70;71.00;;;;;;5011822;28;20057;-39
2023/03/23 11:46:19;;;;;;;7.00;2.15;;;18.70;71.20;;;;;;5012248;28;20122;-41
2023/03/23 11:48:57;;;;;;;5.38;2.08;;;18.60;71.40;;;;;;5012515;28;20050;-38
2023/03/23 11:51:31;;;;;;;4.75;2.03;;;18.60;71.50;;;;;;5011173;28;20091;-38
2023/03/23 11:54:21;;;;;;;6.22;2.15;;;18.50;71.50;;;;;;5012109;28;20041;-40
2023/03/23 11:56:47;;;;;;;7.38;2.38;;;18.40;71.50;;;;;;5010592;28;20501;-37
2023/03/23 11:59:36;;;;;;;5.82;2.30;;;18.40;71.60;;;;;;5012461;28;20049;-37
2023/03/23 12:02:23;;;;;;;6.72;2.53;;;18.40;71.80;;;;;;5011390;28;20096;-38
2023/03/23 12:05:04;;;;;;;4.28;1.90;;;18.40;72.50;;;;;;5012408;28;20522;-39
2023/03/23 12:07:57;;;;;;;6.72;2.40;;;18.30;71.90;;;;;;5015709;28;20523;-38
2023/03/23 12:10:47;;;;;;;5.87;2.43;;;18.30;72.00;;;;;;5016399;28;20096;-39
2023/03/23 12:13:52;;;;;;;4.43;2.05;;;18.30;71.90;;;;;;5017639;28;20062;-39
2023/03/23 12:16:27;;;;;;;4.53;2.00;;;18.30;71.90;;;;;;5014648;28;20052;-39
2023/03/23 12:19:38;;;;;;;5.45;2.20;;;18.40;71.70;;;;;;5015005;28;20381;-41
2023/03/23 12:22:23;;;;;;;4.97;1.98;;;18.50;71.70;;;;;;5023403;28;20065;-39
2023/03/23 12:24:59;;;;;;;6.30;2.25;;;18.50;71.60;;;;;;5013332;28;20053;-38
2023/03/23 12:28:02;;;;;;;4.43;2.10;;;18.50;71.50;;;;;;5013915;28;20170;-43
2023/03/23 12:31:11;;;;;;;5.60;2.50;;;18.50;71.50;;;;;;5015052;28;20138;-39
2023/03/23 12:34:00;;;;;;;5.85;2.20;;;18.50;71.60;;;;;;5013560;28;20528;-41
2023/03/23 12:36:37;;;;;;;5.13;2.22;;;18.50;71.70;;;;;;5017494;28;20089;-40
2023/03/23 12:39:34;;;;;;;5.72;1.98;;;18.40;71.70;;;;;;5014589;28;20481;-40
2023/03/23 12:42:00;;;;;;;5.57;2.42;;;18.40;71.70;;;;;;5014816;28;20068;-44
2023/03/23 12:44:31;;;;;;;5.05;2.63;;;18.40;71.60;;;;;;5015246;28;20042;-45
2023/03/23 12:47:24;;;;;;;5.90;2.15;;;18.50;71.50;;;;;;4997606;28;20092;-39
2023/03/23 12:50:03;;;;;;;6.10;2.23;;;18.50;71.50;;;;;;5021219;28;20054;-41
2023/03/23 12:52:34;;;;;;;4.32;2.00;;;18.50;71.50;;;;;;4997570;28;20049;-40
2023/03/23 12:55:17;;;;;;;5.55;2.20;;;18.50;71.60;;;;;;5013595;28;20045;-39
2023/03/23 12:57:59;;;;;;;4.82;2.00;;;18.50;71.70;;;;;;5013298;28;20417;-39
2023/03/23 13:01:01;;;;;;;6.18;1.92;;;18.50;71.70;;;;;;5012885;28;20054;-42
2023/03/23 13:03:35;;;;;;;4.32;1.80;;;18.50;71.60;;;;;;5013134;28;20076;-40